Time;durP1;ratioP1;P1;durP2;ratioP2;P2;SDS_P1;SDS_P2;PMS_P1;PMS_P2;Temp;Humidity;BMP_temperature;BMP_pressure;BME280_temperature;BME280_humidity;BME280_pressure;Samples;Min_cycle;Max_cycle;Signal;HPM_P1;HPM_P2
2021/12/06 00:00:22;;;;;;;;;;;20.20;52.20;;;;;;4974213;28;19910;-76
2021/12/06 00:02:50;;;;;;;;;;;20.20;52.20;;;;;;4967436;28;19910;-77
2021/12/06 00:05:16;;;;;;;;;;;20.20;52.20;;;;;;4992326;28;19916;-78
2021/12/06 00:07:42;;;;;;;;;;;20.20;52.10;;;;;;4990556;28;20032;-77
2021/12/06 00:10:09;;;;;;;;;;;20.20;52.20;;;;;;4974283;28;19910;-77
2021/12/06 00:12:34;;;;;;;;;;;20.20;52.30;;;;;;4988692;23;20271;-76
2021/12/06 00:15:00;;;;;;;;;;;20.20;52.30;;;;;;4955227;28;19914;-75
2021/12/06 00:17:26;;;;;;;;;;;20.20;52.20;;;;;;4956231;28;19940;-75
2021/12/06 00:19:51;;;;;;;;;;;20.20;52.20;;;;;;4955840;28;19918;-75
2021/12/06 00:22:23;;;;;;;;;;;20.20;52.20;;;;;;4955607;28;19910;-74
2021/12/06 00:24:52;;;;;;;;;;;20.20;51.60;;;;;;4953813;29;20517;-74
2021/12/06 00:27:22;;;;;;;;;;;20.20;52.10;;;;;;4951828;28;19910;-77
2021/12/06 00:29:48;;;;;;;;;;;20.30;52.10;;;;;;4904421;29;19972;-75
2021/12/06 00:32:14;;;;;;;;;;;20.30;52.10;;;;;;4912018;28;19932;-75
2021/12/06 00:34:41;;;;;;;;;;;20.30;52.20;;;;;;4939413;28;19956;-72
2021/12/06 00:37:20;;;;;;;;;;;20.30;52.20;;;;;;4927016;28;19921;-74
2021/12/06 00:39:53;;;;;;;;;;;20.30;52.30;;;;;;4935598;28;19922;-75
2021/12/06 00:42:20;;;;;;;;;;;20.30;52.40;;;;;;4903867;28;20029;-75
2021/12/06 00:44:46;;;;;;;;;;;20.30;52.40;;;;;;4958291;28;19926;-74
2021/12/06 00:47:12;;;;;;;;;;;20.30;52.40;;;;;;4935900;28;19910;-76
2021/12/06 00:49:38;;;;;;;;;;;20.30;52.50;;;;;;4935384;28;20379;-77
2021/12/06 00:52:04;;;;;;;;;;;20.30;52.50;;;;;;4952287;28;19918;-77
2021/12/06 00:54:34;;;;;;;;;;;20.30;52.50;;;;;;4904319;28;19911;-75
2021/12/06 00:57:01;;;;;;;;;;;20.30;52.50;;;;;;4934217;28;19954;-76
2021/12/06 00:59:27;;;;;;;;;;;20.30;52.50;;;;;;4935714;28;20280;-76
2021/12/06 01:01:54;;;;;;;;;;;20.20;52.50;;;;;;4935392;28;19997;-74
2021/12/06 01:04:21;;;;;;;;;;;20.30;52.60;;;;;;4919245;29;19921;-76
2021/12/06 01:06:46;;;;;;;;;;;20.30;52.00;;;;;;4952547;28;19914;-77
2021/12/06 01:09:12;;;;;;;;;;;20.30;52.60;;;;;;4935130;28;20261;-76
2021/12/06 01:11:39;;;;;;;;;;;20.30;52.60;;;;;;4935334;28;20339;-73
2021/12/06 01:14:05;;;;;;;;;;;20.30;52.70;;;;;;4919444;28;19945;-76
2021/12/06 01:16:33;;;;;;;;;;;20.30;52.70;;;;;;4920256;28;19914;-77
2021/12/06 01:18:58;;;;;;;;;;;20.30;52.70;;;;;;4951804;28;19910;-76
2021/12/06 01:21:37;;;;;;;;;;;20.30;52.70;;;;;;4935227;28;19965;-74
2021/12/06 01:24:04;;;;;;;;;;;20.30;52.80;;;;;;4935404;28;19911;-75
2021/12/06 01:32:25;;;;;;;;;;;20.30;52.70;;;;;;4954353;28;19918;-75
2021/12/06 01:40:05;;;;;;;;;;;20.30;52.90;;;;;;4952192;29;19917;-75
2021/12/06 01:42:31;;;;;;;;;;;20.30;52.10;;;;;;4952125;29;20393;-75
2021/12/06 01:44:58;;;;;;;;;;;20.20;52.00;;;;;;4951973;29;19917;-75
2021/12/06 01:47:29;;;;;;;;;;;20.20;52.40;;;;;;4947331;29;19919;-75
2021/12/06 01:50:00;;;;;;;;;;;20.20;52.10;;;;;;4936570;29;20045;-75
2021/12/06 01:52:50;;;;;;;;;;;20.20;52.10;;;;;;4936197;29;19918;-75
2021/12/06 01:55:19;;;;;;;;;;;20.20;52.10;;;;;;4935882;29;19911;-76
2021/12/06 01:57:46;;;;;;;;;;;20.20;52.20;;;;;;4936168;29;19915;-75
2021/12/06 02:00:35;;;;;;;;;;;20.20;52.30;;;;;;4899071;29;19911;-76
2021/12/06 02:03:06;;;;;;;;;;;20.20;52.50;;;;;;4918787;29;20442;-75
2021/12/06 02:05:37;;;;;;;;;;;20.20;52.50;;;;;;4916906;29;19926;-75
2021/12/06 02:08:04;;;;;;;;;;;20.20;52.60;;;;;;4949462;28;20044;-75
2021/12/06 02:10:30;;;;;;;;;;;20.20;52.70;;;;;;4920793;29;19918;-76
2021/12/06 02:12:56;;;;;;;;;;;20.20;52.70;;;;;;4952174;29;20374;-75
2021/12/06 02:18:05;;;;;;;;;;;20.20;52.70;;;;;;4955218;29;19957;-75
2021/12/06 02:20:36;;;;;;;;;;;20.20;52.70;;;;;;4956485;29;19915;-75
2021/12/06 02:23:02;;;;;;;;;;;20.20;52.80;;;;;;4937746;29;19918;-75
2021/12/06 02:25:28;;;;;;;;;;;20.10;52.80;;;;;;4951775;28;19918;-75
2021/12/06 02:27:55;;;;;;;;;;;20.20;52.90;;;;;;4952050;29;19910;-75
2021/12/06 02:30:22;;;;;;;;;;;20.10;52.80;;;;;;4935891;29;20584;-75
2021/12/06 02:32:49;;;;;;;;;;;20.10;52.90;;;;;;4952248;28;19954;-75
2021/12/06 02:35:18;;;;;;;;;;;20.10;53.10;;;;;;4935572;29;19918;-75
2021/12/06 02:37:44;;;;;;;;;;;20.10;53.10;;;;;;4952015;29;20019;-75
2021/12/06 02:40:15;;;;;;;;;;;20.10;53.10;;;;;;4936100;29;20005;-75
2021/12/06 02:42:44;;;;;;;;;;;20.10;53.20;;;;;;4951623;29;19914;-74
2021/12/06 02:45:12;;;;;;;;;;;20.10;53.20;;;;;;4951138;29;20452;-75
2021/12/06 02:47:39;;;;;;;;;;;20.10;53.20;;;;;;4951715;28;19962;-75
2021/12/06 02:50:08;;;;;;;;;;;20.10;53.10;;;;;;4943194;29;20395;-75
2021/12/06 02:52:34;;;;;;;;;;;20.10;53.20;;;;;;4938679;28;19914;-75
2021/12/06 02:55:07;;;;;;;;;;;20.10;53.20;;;;;;4938859;29;20406;-75
2021/12/06 02:57:36;;;;;;;;;;;20.10;53.20;;;;;;4938864;29;19914;-75
2021/12/06 03:00:08;;;;;;;;;;;20.10;53.20;;;;;;4956514;28;19917;-75
2021/12/06 03:02:34;;;;;;;;;;;20.10;53.20;;;;;;4938963;28;20081;-75
2021/12/06 03:04:59;;;;;;;;;;;20.10;53.20;;;;;;4938687;29;20367;-74
2021/12/06 03:07:28;;;;;;;;;;;20.10;53.30;;;;;;4938242;29;19914;-73
2021/12/06 03:09:55;;;;;;;;;;;20.10;53.30;;;;;;4939441;29;19910;-73
2021/12/06 03:12:23;;;;;;;;;;;20.10;53.40;;;;;;4938443;28;19910;-73
2021/12/06 03:14:56;;;;;;;;;;;20.10;53.30;;;;;;4938419;29;19961;-72
2021/12/06 03:17:26;;;;;;;;;;;20.10;53.30;;;;;;4938908;29;19911;-73
2021/12/06 03:19:52;;;;;;;;;;;20.10;53.30;;;;;;4954726;28;19917;-73
2021/12/06 03:22:18;;;;;;;;;;;20.10;53.30;;;;;;4923913;29;19911;-74
2021/12/06 03:24:48;;;;;;;;;;;20.10;53.30;;;;;;4950719;29;19969;-73
2021/12/06 03:27:15;;;;;;;;;;;20.10;53.30;;;;;;4935406;29;19950;-74
2021/12/06 03:29:43;;;;;;;;;;;20.10;53.20;;;;;;4950984;29;19965;-73
2021/12/06 03:32:10;;;;;;;;;;;20.10;53.30;;;;;;4951124;28;19962;-73
2021/12/06 03:34:36;;;;;;;;;;;20.10;53.20;;;;;;4935812;29;19914;-74
2021/12/06 03:37:04;;;;;;;;;;;20.10;53.20;;;;;;4953960;29;19953;-74
2021/12/06 03:39:34;;;;;;;;;;;20.10;53.30;;;;;;4938080;29;19910;-74
2021/12/06 03:42:02;;;;;;;;;;;20.00;53.20;;;;;;4938055;29;19910;-74
2021/12/06 03:44:28;;;;;;;;;;;20.10;53.30;;;;;;4937844;29;19917;-74
2021/12/06 03:46:57;;;;;;;;;;;20.10;53.20;;;;;;4937806;29;19910;-74
2021/12/06 03:49:23;;;;;;;;;;;20.00;53.20;;;;;;4937986;29;19934;-73
2021/12/06 03:51:49;;;;;;;;;;;20.00;53.30;;;;;;4937544;29;20282;-74
2021/12/06 03:54:16;;;;;;;;;;;20.00;53.30;;;;;;4937738;29;19915;-74
2021/12/06 03:56:44;;;;;;;;;;;20.00;53.30;;;;;;4937562;29;20047;-74
2021/12/06 03:59:10;;;;;;;;;;;20.00;53.90;;;;;;4937837;29;19911;-74
2021/12/06 04:01:36;;;;;;;;;;;20.00;53.40;;;;;;4921898;29;20009;-74
2021/12/06 04:04:03;;;;;;;;;;;20.00;53.40;;;;;;4935528;29;19953;-74
2021/12/06 04:06:30;;;;;;;;;;;20.00;53.30;;;;;;4916489;29;19911;-74
2021/12/06 04:08:55;;;;;;;;;;;20.00;53.40;;;;;;4934529;29;19911;-74
2021/12/06 04:11:22;;;;;;;;;;;20.00;53.40;;;;;;4949028;29;20375;-74
2021/12/06 04:13:48;;;;;;;;;;;20.00;53.30;;;;;;4937826;29;19937;-74
2021/12/06 04:16:14;;;;;;;;;;;20.00;53.30;;;;;;4938005;29;20371;-74
2021/12/06 04:18:41;;;;;;;;;;;20.00;53.20;;;;;;4938134;29;20356;-74
2021/12/06 04:21:09;;;;;;;;;;;20.00;53.30;;;;;;4926827;29;19915;-74
2021/12/06 04:23:38;;;;;;;;;;;20.00;53.30;;;;;;4955569;29;19911;-74
2021/12/06 04:26:05;;;;;;;;;;;20.00;53.40;;;;;;4940181;29;20380;-74
2021/12/06 04:28:33;;;;;;;;;;;20.00;53.40;;;;;;4956693;28;19953;-74
2021/12/06 04:31:00;;;;;;;;;;;20.00;53.40;;;;;;4957955;28;20326;-74
2021/12/06 04:33:26;;;;;;;;;;;20.00;53.40;;;;;;4937652;29;19926;-74
2021/12/06 04:35:53;;;;;;;;;;;20.00;53.40;;;;;;4936700;29;19993;-74
2021/12/06 04:38:19;;;;;;;;;;;20.00;53.30;;;;;;4937079;29;19911;-74
2021/12/06 04:40:44;;;;;;;;;;;20.00;53.30;;;;;;4953603;29;19933;-74
2021/12/06 04:43:10;;;;;;;;;;;20.00;53.20;;;;;;4936830;29;19961;-74
2021/12/06 04:45:37;;;;;;;;;;;20.00;53.10;;;;;;4936701;29;19922;-74
2021/12/06 04:48:04;;;;;;;;;;;20.00;53.30;;;;;;4936910;29;19917;-74
2021/12/06 04:50:31;;;;;;;;;;;20.00;53.20;;;;;;4930759;29;20013;-74
2021/12/06 04:53:00;;;;;;;;;;;20.00;53.30;;;;;;4933493;29;19961;-74
2021/12/06 04:55:47;;;;;;;;;;;20.00;52.80;;;;;;4949389;29;19917;-74
2021/12/06 04:58:16;;;;;;;;;;;20.00;52.70;;;;;;4933778;29;19994;-74
2021/12/06 05:00:57;;;;;;;;;;;20.00;52.60;;;;;;4952744;29;19918;-74
2021/12/06 05:03:23;;;;;;;;;;;20.10;52.40;;;;;;4936615;29;19960;-74
2021/12/06 05:05:53;;;;;;;;;;;20.00;52.20;;;;;;4936383;29;19918;-74
2021/12/06 05:08:22;;;;;;;;;;;20.00;52.30;;;;;;4953599;29;19911;-74
2021/12/06 05:10:51;;;;;;;;;;;20.00;52.50;;;;;;4936290;29;19910;-74
2021/12/06 05:13:22;;;;;;;;;;;20.00;53.10;;;;;;4936198;29;19969;-74
2021/12/06 05:15:48;;;;;;;;;;;20.00;53.10;;;;;;4936366;29;19914;-74
2021/12/06 05:18:15;;;;;;;;;;;20.00;53.50;;;;;;4953535;28;19997;-74
2021/12/06 05:20:41;;;;;;;;;;;20.00;52.80;;;;;;4913970;29;19950;-74
2021/12/06 05:23:08;;;;;;;;;;;20.00;52.90;;;;;;4949246;29;20416;-74
2021/12/06 05:25:34;;;;;;;;;;;20.00;52.80;;;;;;4948879;29;20339;-74
2021/12/06 05:28:00;;;;;;;;;;;20.00;53.00;;;;;;4949336;29;19910;-74
2021/12/06 05:30:28;;;;;;;;;;;20.00;52.70;;;;;;4952370;29;19915;-74
2021/12/06 05:32:58;;;;;;;;;;;20.00;53.20;;;;;;4904906;29;19914;-75
2021/12/06 05:35:23;;;;;;;;;;;20.00;52.80;;;;;;4935926;29;19910;-74
2021/12/06 05:37:50;;;;;;;;;;;20.00;52.30;;;;;;4936522;29;20358;-75
2021/12/06 05:40:19;;;;;;;;;;;20.00;52.10;;;;;;4935949;29;19965;-74
2021/12/06 05:42:45;;;;;;;;;;;20.00;52.20;;;;;;4953351;28;19910;-74
2021/12/06 05:45:11;;;;;;;;;;;20.00;52.30;;;;;;4957056;29;20371;-75
2021/12/06 05:47:37;;;;;;;;;;;20.00;51.90;;;;;;4957150;29;19914;-74
2021/12/06 05:50:03;;;;;;;;;;;20.00;52.00;;;;;;4938674;29;20283;-75
2021/12/06 05:52:29;;;;;;;;;;;20.00;51.80;;;;;;4952485;29;20019;-75
2021/12/06 05:54:54;;;;;;;;;;;20.00;52.10;;;;;;4937653;29;20428;-74
2021/12/06 05:57:21;;;;;;;;;;;20.00;52.70;;;;;;4921062;29;19911;-74
2021/12/06 05:59:46;;;;;;;;;;;20.00;52.90;;;;;;4938188;29;19921;-75
2021/12/06 06:02:12;;;;;;;;;;;20.00;53.10;;;;;;4952505;29;20373;-75
2021/12/06 06:04:39;;;;;;;;;;;20.00;52.40;;;;;;4920495;29;19917;-74
2021/12/06 06:07:05;;;;;;;;;;;20.00;52.30;;;;;;4937646;29;20375;-75
2021/12/06 06:09:31;;;;;;;;;;;20.00;52.60;;;;;;4920735;29;19910;-75
2021/12/06 06:11:57;;;;;;;;;;;20.00;52.40;;;;;;4938686;29;20450;-75
2021/12/06 06:14:22;;;;;;;;;;;20.00;52.40;;;;;;4979580;23;20394;-84
2021/12/06 06:16:51;;;;;;;;;;;20.00;52.10;;;;;;4977502;28;19916;-85
2021/12/06 06:19:18;;;;;;;;;;;20.00;52.10;;;;;;4963319;28;20012;-85
2021/12/06 06:21:43;;;;;;;;;;;20.00;52.30;;;;;;4979026;28;20534;-84
2021/12/06 06:24:09;;;;;;;;;;;20.10;52.40;;;;;;4967714;28;20009;-85
2021/12/06 06:26:35;;;;;;;;;;;20.00;52.00;;;;;;4943787;28;19917;-85
2021/12/06 06:29:00;;;;;;;;;;;20.00;51.80;;;;;;4944547;28;19914;-85
2021/12/06 06:31:26;;;;;;;;;;;20.00;52.00;;;;;;4933508;29;19911;-85
2021/12/06 06:33:52;;;;;;;;;;;20.00;51.90;;;;;;4955710;28;19925;-83
2021/12/06 06:36:20;;;;;;;;;;;20.00;52.00;;;;;;4939382;29;20391;-84
2021/12/06 06:38:46;;;;;;;;;;;20.00;51.70;;;;;;4955827;28;20005;-83
2021/12/06 06:41:11;;;;;;;;;;;20.00;51.80;;;;;;4975243;28;19909;-85
2021/12/06 06:43:37;;;;;;;;;;;20.00;51.60;;;;;;4959732;28;19910;-85
2021/12/06 06:46:04;;;;;;;;;;;20.00;52.00;;;;;;4926839;28;19941;-83
2021/12/06 06:48:29;;;;;;;;;;;20.00;52.20;;;;;;4943017;28;19953;-82
2021/12/06 06:50:55;;;;;;;;;;;20.00;52.60;;;;;;4958188;28;19937;-84
2021/12/06 06:53:21;;;;;;;;;;;20.00;53.50;;;;;;4958325;28;19961;-84
2021/12/06 06:55:46;;;;;;;;;;;20.00;51.90;;;;;;4957158;28;19910;-84
2021/12/06 06:58:12;;;;;;;;;;;20.00;51.70;;;;;;4958646;28;19914;-83
2021/12/06 07:00:38;;;;;;;;;;;20.00;51.50;;;;;;4955502;28;20009;-83
2021/12/06 07:03:05;;;;;;;;;;;20.00;51.60;;;;;;4956478;28;19918;-83
2021/12/06 07:05:30;;;;;;;;;;;20.00;51.60;;;;;;4971431;28;19914;-83
2021/12/06 07:07:57;;;;;;;;;;;20.00;51.60;;;;;;4955331;28;19911;-83
2021/12/06 07:10:23;;;;;;;;;;;20.00;51.50;;;;;;4956162;28;19918;-83
2021/12/06 07:12:51;;;;;;;;;;;20.00;51.50;;;;;;4944421;28;19914;-84
2021/12/06 07:15:22;;;;;;;;;;;20.00;51.50;;;;;;4939846;29;19921;-83
2021/12/06 07:17:48;;;;;;;;;;;20.00;51.50;;;;;;4924248;29;19925;-84
2021/12/06 07:20:14;;;;;;;;;;;20.00;51.40;;;;;;4955375;28;19914;-84
2021/12/06 07:22:41;;;;;;;;;;;20.00;51.40;;;;;;4956479;28;20457;-83
2021/12/06 07:25:07;;;;;;;;;;;20.00;51.50;;;;;;4971174;28;19914;-84
2021/12/06 07:27:33;;;;;;;;;;;20.00;51.40;;;;;;4939796;29;20270;-83
2021/12/06 07:29:59;;;;;;;;;;;20.00;51.40;;;;;;4970862;28;19965;-83
2021/12/06 07:32:25;;;;;;;;;;;20.00;51.40;;;;;;4954880;28;19914;-84
2021/12/06 07:34:51;;;;;;;;;;;20.00;51.40;;;;;;4938962;29;19917;-83
2021/12/06 07:37:22;;;;;;;;;;;20.00;51.40;;;;;;4969450;28;19956;-84
2021/12/06 07:40:00;;;;;;;;;;;20.00;51.40;;;;;;4957605;28;19913;-85
2021/12/06 07:42:26;;;;;;;;;;;20.00;51.20;;;;;;4910999;29;19918;-85
2021/12/06 07:44:52;;;;;;;;;;;20.00;51.60;;;;;;4955784;29;19911;-84
2021/12/06 07:47:18;;;;;;;;;;;20.00;51.50;;;;;;4939084;29;19910;-85
2021/12/06 07:49:46;;;;;;;;;;;20.10;51.70;;;;;;4938985;29;20307;-85
2021/12/06 07:52:12;;;;;;;;;;;20.10;52.20;;;;;;4937455;28;20009;-85
2021/12/06 07:54:38;;;;;;;;;;;20.10;52.50;;;;;;4957822;28;20008;-84
2021/12/06 07:57:05;;;;;;;;;;;20.10;53.00;;;;;;4975045;28;19910;-85
2021/12/06 07:59:30;;;;;;;;;;;20.10;53.60;;;;;;4926434;28;20256;-85
2021/12/06 08:01:56;;;;;;;;;;;20.10;54.00;;;;;;4940254;28;19917;-85
2021/12/06 08:04:22;;;;;;;;;;;20.10;54.40;;;;;;4942015;28;19949;-85
2021/12/06 08:06:47;;;;;;;;;;;20.10;55.40;;;;;;4957231;28;20000;-85
2021/12/06 08:09:14;;;;;;;;;;;20.10;56.00;;;;;;4957879;28;19910;-84
2021/12/06 08:11:43;;;;;;;;;;;20.20;56.40;;;;;;4941826;28;19925;-84
2021/12/06 08:14:08;;;;;;;;;;;20.20;57.00;;;;;;4957560;28;19914;-85
2021/12/06 08:16:40;;;;;;;;;;;20.20;57.20;;;;;;4974591;28;20287;-85
2021/12/06 08:19:06;;;;;;;;;;;20.20;58.20;;;;;;4942344;28;19917;-84
2021/12/06 08:21:32;;;;;;;;;;;20.20;57.50;;;;;;4916889;29;19910;-84
2021/12/06 08:23:58;;;;;;;;;;;20.20;57.30;;;;;;4938503;29;20381;-84
2021/12/06 08:26:25;;;;;;;;;;;20.20;55.90;;;;;;4922663;29;20022;-83
2021/12/06 08:28:52;;;;;;;;;;;20.20;56.10;;;;;;4907383;29;19934;-84
2021/12/06 08:31:22;;;;;;;;;;;20.30;56.40;;;;;;4929748;28;19937;-84
2021/12/06 08:33:49;;;;;;;;;;;20.20;57.00;;;;;;4941679;28;19917;-85
2021/12/06 08:36:15;;;;;;;;;;;20.20;56.40;;;;;;4926647;28;19910;-86
2021/12/06 08:38:41;;;;;;;;;;;20.10;56.70;;;;;;4926791;28;20004;-86
2021/12/06 08:41:09;;;;;;;;;;;20.10;56.70;;;;;;4920245;29;19918;-86
2021/12/06 08:43:35;;;;;;;;;;;20.10;57.10;;;;;;4922535;29;19942;-86
2021/12/06 08:46:02;;;;;;;;;;;20.10;59.10;;;;;;4922536;29;19915;-86
2021/12/06 08:48:30;;;;;;;;;;;20.00;58.40;;;;;;4922997;29;19910;-92
2021/12/06 08:50:57;;;;;;;;;;;19.90;55.10;;;;;;4944291;28;19910;-93
2021/12/06 09:17:46;;;;;;;;;;;20.00;56.20;;;;;;4953513;28;20017;-92
2021/12/06 09:20:21;;;;;;;;;;;20.00;56.50;;;;;;4922045;29;19993;-89
2021/12/06 09:22:48;;;;;;;;;;;20.00;56.90;;;;;;4921729;29;20005;-89
2021/12/06 09:25:17;;;;;;;;;;;20.00;56.60;;;;;;4922817;29;19910;-88
2021/12/06 09:27:44;;;;;;;;;;;20.00;57.00;;;;;;4907268;29;20444;-89
2021/12/06 09:30:11;;;;;;;;;;;20.00;56.60;;;;;;4938503;29;19914;-89
2021/12/06 09:32:38;;;;;;;;;;;20.00;56.50;;;;;;4906583;29;19922;-88
2021/12/06 09:35:04;;;;;;;;;;;20.00;56.60;;;;;;4937535;29;19910;-87
2021/12/06 09:37:30;;;;;;;;;;;20.00;56.80;;;;;;4921869;29;20001;-87
2021/12/06 09:39:57;;;;;;;;;;;20.00;56.60;;;;;;4921850;29;19910;-87
2021/12/06 09:42:23;;;;;;;;;;;20.00;56.60;;;;;;4937500;29;19910;-89
2021/12/06 09:44:49;;;;;;;;;;;20.00;56.70;;;;;;4922197;29;19910;-88
2021/12/06 09:47:17;;;;;;;;;;;20.00;57.00;;;;;;4938029;29;19949;-88
2021/12/06 09:49:44;;;;;;;;;;;20.00;56.50;;;;;;4922633;29;19915;-89
2021/12/06 09:52:11;;;;;;;;;;;20.00;56.70;;;;;;4939510;29;19914;-88
2021/12/06 09:54:41;;;;;;;;;;;20.00;57.20;;;;;;4911102;29;20008;-91
2021/12/06 10:07:42;;;;;;;;;;;20.00;59.20;;;;;;5147497;23;19962;-83
2021/12/06 10:10:11;;;;;;;;;;;20.00;60.70;;;;;;4907338;29;19921;-88
2021/12/06 10:12:48;;;;;;;;;;;20.00;59.40;;;;;;4903340;29;19917;-89
2021/12/06 10:15:14;;;;;;;;;;;19.90;59.30;;;;;;4916516;29;19915;-84
2021/12/06 10:17:41;;;;;;;;;;;20.00;61.50;;;;;;4916424;29;19911;-87
2021/12/06 10:20:08;;;;;;;;;;;20.10;60.10;;;;;;4899799;29;19915;-86
2021/12/06 10:22:37;;;;;;;;;;;20.00;59.00;;;;;;4884035;29;20492;-88
2021/12/06 10:25:06;;;;;;;;;;;20.00;60.10;;;;;;4899105;29;20478;-86
2021/12/06 10:27:34;;;;;;;;;;;20.10;61.50;;;;;;4899260;29;19911;-89
2021/12/06 10:30:26;;;;;;;;;;;20.10;60.50;;;;;;4917418;29;20005;-88
2021/12/06 10:33:03;;;;;;;;;;;20.10;61.20;;;;;;4910209;29;20305;-87
2021/12/06 10:35:50;;;;;;;;;;;20.10;62.30;;;;;;4901272;29;20336;-83
2021/12/06 10:38:21;;;;;;;;;;;20.10;62.60;;;;;;4902499;29;19911;-79
2021/12/06 10:40:47;;;;;;;;;;;20.10;61.50;;;;;;4901844;29;19967;-77
2021/12/06 10:43:13;;;;;;;;;;;20.10;60.70;;;;;;4918928;29;20390;-82
2021/12/06 10:45:42;;;;;;;;;;;20.10;60.50;;;;;;4899231;29;20010;-81
2021/12/06 10:48:22;;;;;;;;;;;20.10;59.70;;;;;;4898200;29;20257;-80
2021/12/06 10:50:47;;;;;;;;;;;20.00;57.90;;;;;;4882722;29;19963;-79
2021/12/06 10:53:14;;;;;;;;;;;20.00;57.60;;;;;;4899549;29;19919;-79
2021/12/06 10:55:41;;;;;;;;;;;20.00;55.60;;;;;;4917973;29;19911;-78
2021/12/06 10:58:10;;;;;;;;;;;19.90;56.70;;;;;;4918222;29;20006;-80
2021/12/06 11:00:42;;;;;;;;;;;19.90;58.10;;;;;;4918689;29;19915;-80
2021/12/06 11:03:19;;;;;;;;;;;19.90;57.50;;;;;;4917437;29;19911;-80
2021/12/06 11:05:48;;;;;;;;;;;19.90;58.40;;;;;;4918433;29;19910;-81
2021/12/06 11:08:15;;;;;;;;;;;19.90;59.40;;;;;;4918424;29;19998;-80
2021/12/06 11:10:43;;;;;;;;;;;19.90;58.70;;;;;;4901598;29;19915;-80
2021/12/06 11:13:16;;;;;;;;;;;19.90;58.50;;;;;;4918422;29;19915;-79
2021/12/06 11:15:53;;;;;;;;;;;19.90;58.20;;;;;;4917907;29;19949;-79
2021/12/06 11:18:36;;;;;;;;;;;19.90;58.80;;;;;;4918398;29;19970;-78
2021/12/06 11:21:03;;;;;;;;;;;19.90;58.50;;;;;;4918559;29;19917;-78
2021/12/06 11:23:29;;;;;;;;;;;19.90;59.40;;;;;;4917539;29;19915;-80
2021/12/06 11:25:56;;;;;;;;;;;19.90;59.10;;;;;;4917473;29;19975;-79
2021/12/06 11:28:23;;;;;;;;;;;19.90;59.10;;;;;;4918057;29;19918;-80
2021/12/06 11:30:56;;;;;;;;;;;19.90;59.10;;;;;;4917734;29;19918;-80
2021/12/06 11:33:29;;;;;;;;;;;19.90;58.90;;;;;;4900556;29;20273;-81
2021/12/06 11:35:55;;;;;;;;;;;20.00;59.40;;;;;;4900411;29;19911;-81
2021/12/06 11:38:20;;;;;;;;;;;19.90;59.30;;;;;;4901212;29;20052;-81
2021/12/06 11:40:46;;;;;;;;;;;20.00;59.40;;;;;;4900243;29;19911;-80
2021/12/06 11:43:14;;;;;;;;;;;19.90;58.90;;;;;;4917773;29;19918;-81
2021/12/06 11:45:46;;;;;;;;;;;19.90;59.10;;;;;;4900228;29;20051;-80
2021/12/06 11:48:13;;;;;;;;;;;20.00;59.40;;;;;;4917182;29;19918;-79
2021/12/06 11:50:50;;;;;;;;;;;20.00;59.40;;;;;;4917179;29;19911;-80
2021/12/06 11:53:20;;;;;;;;;;;19.90;59.40;;;;;;4900185;29;20017;-80
2021/12/06 11:55:47;;;;;;;;;;;19.90;59.50;;;;;;4898337;29;20284;-79
2021/12/06 11:58:25;;;;;;;;;;;19.90;59.20;;;;;;4898159;29;20277;-79
2021/12/06 12:01:03;;;;;;;;;;;19.90;59.10;;;;;;4897287;29;19947;-80
2021/12/06 12:03:30;;;;;;;;;;;19.90;59.20;;;;;;4899570;29;19911;-80
2021/12/06 12:05:56;;;;;;;;;;;19.90;59.10;;;;;;4916868;29;20131;-79
2021/12/06 12:08:21;;;;;;;;;;;20.00;59.40;;;;;;4900208;29;20412;-80
2021/12/06 12:10:47;;;;;;;;;;;20.00;59.40;;;;;;4917053;29;19962;-80
2021/12/06 12:13:20;;;;;;;;;;;20.00;59.40;;;;;;4916427;29;20013;-80
2021/12/06 12:15:46;;;;;;;;;;;20.00;59.40;;;;;;4900400;29;19946;-80
2021/12/06 12:18:12;;;;;;;;;;;20.00;58.90;;;;;;4917160;29;19958;-81
2021/12/06 12:20:37;;;;;;;;;;;20.00;58.50;;;;;;4916955;29;19911;-82
2021/12/06 12:23:08;;;;;;;;;;;20.00;59.00;;;;;;4899530;29;19911;-80
2021/12/06 12:25:37;;;;;;;;;;;20.00;59.10;;;;;;4898388;29;19918;-79
2021/12/06 12:28:50;;;;;;;;;;;20.10;59.10;;;;;;4915880;29;19919;-82
2021/12/06 12:30:54;;;;;;;;;;;20.10;59.70;;;;;;4899399;29;20299;-79
2021/12/06 12:33:20;;;;;;;;;;;20.20;60.10;;;;;;4916256;29;19930;-79
2021/12/06 12:35:51;;;;;;;;;;;20.30;60.20;;;;;;4915572;29;19911;-76
2021/12/06 12:38:20;;;;;;;;;;;20.30;59.70;;;;;;4916429;29;19965;-79
2021/12/06 12:40:50;;;;;;;;;;;20.30;59.50;;;;;;4915902;29;19950;-79
2021/12/06 12:43:25;;;;;;;;;;;20.30;59.20;;;;;;4916311;29;19911;-79
2021/12/06 12:45:56;;;;;;;;;;;20.40;58.90;;;;;;4915932;29;19939;-80
2021/12/06 12:48:25;;;;;;;;;;;20.40;58.70;;;;;;4917080;29;19994;-77
2021/12/06 12:51:02;;;;;;;;;;;20.40;58.60;;;;;;4916348;29;20021;-78
2021/12/06 12:53:27;;;;;;;;;;;20.40;58.70;;;;;;4898676;29;19915;-77
2021/12/06 12:55:53;;;;;;;;;;;20.50;58.80;;;;;;4915872;29;19911;-79
2021/12/06 12:58:23;;;;;;;;;;;20.50;58.70;;;;;;4916716;29;19915;-80
2021/12/06 13:01:02;;;;;;;;;;;20.50;58.80;;;;;;4899448;29;19911;-77
2021/12/06 13:03:29;;;;;;;;;;;20.50;58.70;;;;;;4909821;29;19914;-82
2021/12/06 13:06:15;;;;;;;;;;;20.50;58.40;;;;;;4915227;29;19934;-77
2021/12/06 13:08:40;;;;;;;;;;;20.50;58.00;;;;;;4916045;29;19911;-79
2021/12/06 13:11:06;;;;;;;;;;;20.50;57.80;;;;;;4916018;29;20407;-77
2021/12/06 13:13:39;;;;;;;;;;;20.50;57.70;;;;;;4915356;29;20534;-80
2021/12/06 13:18:33;;;;;;;;;;;20.50;57.60;;;;;;4897327;29;19918;-78
2021/12/06 13:21:19;;;;;;;;;;;20.50;57.60;;;;;;4908315;29;20289;-77
2021/12/06 13:23:44;;;;;;;;;;;20.50;57.70;;;;;;4913719;29;20374;-77
2021/12/06 13:26:10;;;;;;;;;;;20.50;57.70;;;;;;4914673;29;19937;-78
2021/12/06 13:29:00;;;;;;;;;;;20.50;57.70;;;;;;4913432;29;19911;-80
2021/12/06 13:31:25;;;;;;;;;;;20.50;57.50;;;;;;4897378;29;20821;-80
2021/12/06 13:33:51;;;;;;;;;;;20.50;57.60;;;;;;4903031;29;19923;-78
2021/12/06 13:36:37;;;;;;;;;;;20.50;57.60;;;;;;4899116;29;19934;-79
2021/12/06 13:39:05;;;;;;;;;;;20.50;57.50;;;;;;4915991;29;19915;-82
2021/12/06 13:41:31;;;;;;;;;;;20.40;57.40;;;;;;4898679;29;19911;-79
2021/12/06 13:44:08;;;;;;;;;;;20.40;57.40;;;;;;4914147;29;19918;-73
2021/12/06 13:46:38;;;;;;;;;;;20.40;57.20;;;;;;4915107;29;20384;-76
2021/12/06 13:49:07;;;;;;;;;;;20.40;57.10;;;;;;4915393;29;19962;-76
2021/12/06 13:51:36;;;;;;;;;;;20.40;57.20;;;;;;4882865;29;20355;-76
2021/12/06 13:54:06;;;;;;;;;;;20.40;57.10;;;;;;4914694;29;19970;-75
2021/12/06 13:56:36;;;;;;;;;;;20.40;57.20;;;;;;4915170;29;19911;-75
2021/12/06 13:59:02;;;;;;;;;;;20.30;57.20;;;;;;4915397;29;19911;-76
2021/12/06 14:01:28;;;;;;;;;;;20.30;56.90;;;;;;4919012;29;19911;-76
2021/12/06 14:03:54;;;;;;;;;;;20.30;56.90;;;;;;4887379;29;19962;-76
2021/12/06 14:06:23;;;;;;;;;;;20.20;56.00;;;;;;4905356;29;20395;-76
2021/12/06 14:08:50;;;;;;;;;;;20.20;56.10;;;;;;4889325;29;19917;-77
2021/12/06 14:11:22;;;;;;;;;;;20.20;55.70;;;;;;4905029;29;19957;-75
2021/12/06 14:13:49;;;;;;;;;;;20.20;55.50;;;;;;4920931;29;19919;-74
2021/12/06 14:16:18;;;;;;;;;;;20.20;55.00;;;;;;4888890;29;19911;-76
2021/12/06 14:18:44;;;;;;;;;;;20.20;55.30;;;;;;4905739;29;20283;-81
2021/12/06 14:21:10;;;;;;;;;;;20.20;55.30;;;;;;4905414;29;19991;-76
2021/12/06 14:23:36;;;;;;;;;;;20.20;55.60;;;;;;4904990;29;19919;-77
2021/12/06 14:26:15;;;;;;;;;;;20.30;55.50;;;;;;4904106;29;19915;-85
2021/12/06 14:28:45;;;;;;;;;;;20.30;55.50;;;;;;4903684;29;19919;-73
2021/12/06 14:31:11;;;;;;;;;;;20.30;55.90;;;;;;4903854;29;19935;-72
2021/12/06 14:33:38;;;;;;;;;;;20.20;55.50;;;;;;4920899;29;19922;-73
2021/12/06 14:36:05;;;;;;;;;;;20.20;55.20;;;;;;4920829;29;19910;-76
2021/12/06 14:38:32;;;;;;;;;;;20.20;55.00;;;;;;4888117;29;19947;-77
2021/12/06 14:40:59;;;;;;;;;;;20.20;55.20;;;;;;4904364;29;19963;-75
2021/12/06 14:43:26;;;;;;;;;;;20.20;55.50;;;;;;4904022;29;19911;-86
2021/12/06 14:46:18;;;;;;;;;;;20.20;55.40;;;;;;4889634;29;19915;-80
2021/12/06 14:48:48;;;;;;;;;;;20.30;55.60;;;;;;4917739;29;19911;-83
2021/12/06 14:51:16;;;;;;;;;;;20.20;55.50;;;;;;4919930;29;19918;-84
2021/12/06 14:53:54;;;;;;;;;;;20.20;55.60;;;;;;4938176;29;19921;-84
2021/12/06 14:56:41;;;;;;;;;;;20.20;55.80;;;;;;4937312;29;19999;-84
2021/12/06 14:59:08;;;;;;;;;;;20.20;55.90;;;;;;4927049;29;19966;-83
2021/12/06 15:01:33;;;;;;;;;;;20.20;56.10;;;;;;4902790;29;20006;-84
2021/12/06 15:04:07;;;;;;;;;;;20.20;56.30;;;;;;4902607;29;19911;-84
2021/12/06 15:06:36;;;;;;;;;;;20.20;56.30;;;;;;4902851;29;19907;-86
2021/12/06 15:09:03;;;;;;;;;;;20.20;56.30;;;;;;4903411;29;19911;-85
2021/12/06 15:11:33;;;;;;;;;;;20.20;56.40;;;;;;4902670;29;19918;-83
2021/12/06 15:14:02;;;;;;;;;;;20.20;56.50;;;;;;4902361;29;19915;-83